createdAt,value
2023-06-30T00:01:50.627Z,30.55
2023-06-30T00:04:19.519Z,30.50
2023-06-30T00:06:50.594Z,30.39
2023-06-30T00:09:21.402Z,30.52
2023-06-30T00:11:51.657Z,30.46
2023-06-30T00:14:18.914Z,30.38
2023-06-30T00:16:46.368Z,31.14
2023-06-30T00:19:13.757Z,30.71
2023-06-30T00:21:43.062Z,30.43
2023-06-30T00:24:20.321Z,30.55
2023-06-30T00:26:47.345Z,30.35
2023-06-30T00:29:14.780Z,30.34
2023-06-30T00:31:41.871Z,30.31
2023-06-30T00:34:08.948Z,30.26
2023-06-30T00:36:35.952Z,30.18
2023-06-30T00:39:03.927Z,30.20
2023-06-30T00:41:31.145Z,30.55
2023-06-30T00:43:59.363Z,30.27
2023-06-30T00:46:26.955Z,30.41
2023-06-30T00:48:55.492Z,30.47
2023-06-30T00:51:22.619Z,30.47
2023-06-30T00:53:49.690Z,30.41
2023-06-30T00:56:16.660Z,30.04
2023-06-30T00:58:44.140Z,29.95
2023-06-30T01:01:31.073Z,30.30
2023-06-30T01:04:07.947Z,30.59
2023-06-30T01:06:40.347Z,30.46
2023-06-30T01:09:20.646Z,30.48
2023-06-30T01:11:48.770Z,30.23
2023-06-30T01:14:17.965Z,30.20
2023-06-30T01:16:45.355Z,30.12
2023-06-30T01:19:45.724Z,30.17
2023-06-30T01:22:40.888Z,30.17
2023-06-30T01:25:13.257Z,30.04
2023-06-30T01:27:41.932Z,30.17
2023-06-30T01:30:11.146Z,30.20
2023-06-30T01:32:42.038Z,30.21
2023-06-30T01:35:09.728Z,29.81
2023-06-30T01:37:37.099Z,30.04
2023-06-30T01:40:08.046Z,29.98
2023-06-30T01:42:37.671Z,29.90
2023-06-30T01:45:06.078Z,29.97
2023-06-30T01:47:33.520Z,30.06
2023-06-30T01:50:00.912Z,30.01
2023-06-30T01:52:27.962Z,29.99
2023-06-30T01:54:55.028Z,29.90
2023-06-30T01:57:22.030Z,30.13
2023-06-30T01:59:49.055Z,30.08
2023-06-30T02:02:16.098Z,29.77
2023-06-30T02:04:43.121Z,29.87
2023-06-30T02:07:10.246Z,29.87
2023-06-30T02:09:47.279Z,29.90
2023-06-30T02:12:15.782Z,29.67
2023-06-30T02:14:43.146Z,29.62
2023-06-30T02:17:11.423Z,30.00
2023-06-30T02:19:38.513Z,30.01
2023-06-30T02:22:06.285Z,30.06
2023-06-30T02:24:33.477Z,29.53
2023-06-30T02:27:00.817Z,29.43
2023-06-30T02:29:27.986Z,29.45
2023-06-30T02:31:55.409Z,29.42
2023-06-30T02:34:22.781Z,29.40
2023-06-30T02:36:49.894Z,29.35
2023-06-30T02:39:17.623Z,29.32
2023-06-30T02:41:44.747Z,29.32
2023-06-30T02:44:13.339Z,29.38
2023-06-30T02:46:40.509Z,29.29
2023-06-30T02:49:07.545Z,29.21
2023-06-30T02:51:35.286Z,29.20
2023-06-30T02:54:02.483Z,29.19
2023-06-30T02:56:29.532Z,29.10
2023-06-30T02:58:58.458Z,29.15
2023-06-30T03:01:26.592Z,29.20
2023-06-30T03:03:54.251Z,29.17
2023-06-30T03:06:25.424Z,29.41
2023-06-30T03:08:52.816Z,29.45
2023-06-30T03:11:23.201Z,29.44
2023-06-30T03:13:50.643Z,29.35
2023-06-30T03:16:17.761Z,29.33
2023-06-30T03:18:45.272Z,29.32
2023-06-30T03:21:12.290Z,29.32
2023-06-30T03:23:41.490Z,29.30
2023-06-30T03:26:08.719Z,29.29
2023-06-30T03:28:36.884Z,29.19
2023-06-30T03:31:04.212Z,29.21
2023-06-30T03:33:31.579Z,29.14
2023-06-30T03:35:58.616Z,29.08
2023-06-30T03:38:26.350Z,29.11
2023-06-30T03:40:53.392Z,29.21
2023-06-30T03:43:23.831Z,28.89
2023-06-30T03:45:51.873Z,28.80
2023-06-30T03:48:18.947Z,28.78
2023-06-30T03:50:46.124Z,28.72
2023-06-30T03:53:13.393Z,28.75
2023-06-30T03:55:40.443Z,28.68
2023-06-30T03:58:07.526Z,28.68
2023-06-30T04:00:35.104Z,28.72
2023-06-30T04:03:02.368Z,28.67
2023-06-30T04:05:29.505Z,28.59
2023-06-30T04:07:56.981Z,28.64
2023-06-30T04:10:24.063Z,28.72
2023-06-30T04:12:51.249Z,29.06
2023-06-30T04:15:18.198Z,29.00
2023-06-30T04:17:45.300Z,29.18
2023-06-30T04:20:15.946Z,29.25
2023-06-30T04:22:43.322Z,29.21
2023-06-30T04:25:10.841Z,29.27
2023-06-30T04:27:38.102Z,29.22
2023-06-30T04:30:09.287Z,29.26
2023-06-30T04:32:36.482Z,29.10
2023-06-30T04:35:03.913Z,29.09
2023-06-30T04:37:30.930Z,29.16
2023-06-30T04:39:59.368Z,29.28
2023-06-30T04:42:29.489Z,28.84
2023-06-30T04:44:56.689Z,28.49
2023-06-30T04:47:23.785Z,28.12
2023-06-30T04:49:51.118Z,28.01
2023-06-30T04:52:18.092Z,28.14
2023-06-30T04:54:45.358Z,27.97
2023-06-30T04:57:12.470Z,27.97
2023-06-30T04:59:39.823Z,27.82
2023-06-30T05:02:07.691Z,27.76
2023-06-30T05:04:34.675Z,27.71
2023-06-30T05:07:01.678Z,27.40
2023-06-30T05:09:28.672Z,26.95
2023-06-30T05:11:55.884Z,26.72
2023-06-30T05:14:22.860Z,27.54
2023-06-30T05:16:51.139Z,27.29
2023-06-30T05:19:18.348Z,27.66
2023-06-30T05:21:45.313Z,28.12
2023-06-30T05:24:12.312Z,28.05
2023-06-30T05:26:39.398Z,28.00
2023-06-30T05:29:07.857Z,27.89
2023-06-30T05:31:34.865Z,28.24
2023-06-30T05:34:02.804Z,28.44
2023-06-30T05:36:34.937Z,28.56
2023-06-30T05:39:02.957Z,28.42
2023-06-30T05:41:29.951Z,28.23
2023-06-30T05:43:56.986Z,27.63
2023-06-30T05:46:24.066Z,28.10
2023-06-30T05:48:51.071Z,28.37
2023-06-30T05:51:18.085Z,28.44
2023-06-30T05:53:45.111Z,28.49
2023-06-30T05:56:12.106Z,28.47
2023-06-30T05:58:41.892Z,28.64
2023-06-30T06:01:08.902Z,28.78
2023-06-30T06:03:36.066Z,28.70
2023-06-30T06:06:03.473Z,28.81
2023-06-30T06:08:30.872Z,28.75
2023-06-30T06:10:57.979Z,28.85
2023-06-30T06:13:39.749Z,28.67
2023-06-30T06:16:08.830Z,28.19
2023-06-30T06:18:36.610Z,27.95
2023-06-30T06:21:05.035Z,25.72
2023-06-30T06:23:32.344Z,26.36
2023-06-30T06:25:59.661Z,25.19
2023-06-30T06:28:26.694Z,24.53
2023-06-30T06:30:53.743Z,26.34
2023-06-30T06:33:21.354Z,26.35
2023-06-30T06:35:52.118Z,37.17
2023-06-30T06:38:20.581Z,40.33
2023-06-30T06:40:48.663Z,39.88
2023-06-30T06:43:15.916Z,35.53
2023-06-30T06:45:43.809Z,34.57
2023-06-30T06:48:20.265Z,35.06
2023-06-30T06:50:55.313Z,34.58
2023-06-30T06:53:27.035Z,34.79
2023-06-30T06:55:56.441Z,34.60
2023-06-30T06:58:26.555Z,34.66
2023-06-30T07:00:54.139Z,34.34
2023-06-30T07:03:21.689Z,34.03
2023-06-30T07:05:49.342Z,33.74
2023-06-30T07:08:20.079Z,34.46
2023-06-30T07:10:48.905Z,34.16
2023-06-30T07:13:19.298Z,34.13
2023-06-30T07:15:48.916Z,34.13
2023-06-30T07:18:19.970Z,34.21
2023-06-30T07:20:52.114Z,34.32
2023-06-30T07:23:19.800Z,34.10
2023-06-30T07:25:50.116Z,34.06
2023-06-30T07:28:17.336Z,34.05
2023-06-30T07:30:45.021Z,33.98
2023-06-30T07:33:12.215Z,33.69
2023-06-30T07:35:39.867Z,34.16
2023-06-30T07:38:06.977Z,33.73
2023-06-30T07:40:50.612Z,34.54
2023-06-30T07:43:20.958Z,34.52
2023-06-30T07:45:48.676Z,34.85
2023-06-30T07:48:16.378Z,34.66
2023-06-30T07:50:54.659Z,34.40
2023-06-30T07:53:27.102Z,34.26
2023-06-30T07:55:54.215Z,33.27
2023-06-30T07:58:21.481Z,33.25
2023-06-30T08:00:48.464Z,33.07
2023-06-30T08:03:15.580Z,33.31
2023-06-30T08:05:43.227Z,33.69
2023-06-30T08:08:10.442Z,33.01
2023-06-30T08:10:39.537Z,32.68
2023-06-30T08:13:07.537Z,33.50
2023-06-30T08:15:34.523Z,33.14
2023-06-30T08:18:09.442Z,32.66
2023-06-30T08:20:39.382Z,33.07
2023-06-30T08:23:06.564Z,32.24
2023-06-30T08:25:33.691Z,32.77
2023-06-30T08:28:00.818Z,32.21
2023-06-30T08:30:28.775Z,32.62
2023-06-30T08:32:56.695Z,32.44
2023-06-30T08:35:24.953Z,32.72
2023-06-30T08:37:53.906Z,32.56
2023-06-30T08:40:27.080Z,33.09
2023-06-30T08:42:56.960Z,33.35
2023-06-30T08:45:29.211Z,33.32
2023-06-30T08:48:17.377Z,33.16
2023-06-30T08:50:45.408Z,33.02
2023-06-30T08:53:12.655Z,32.77
2023-06-30T08:55:41.019Z,33.12
2023-06-30T08:58:21.137Z,32.65
2023-06-30T09:00:52.376Z,30.95
2023-06-30T09:03:20.455Z,31.03
2023-06-30T09:05:49.541Z,31.79
2023-06-30T09:08:36.305Z,31.28
2023-06-30T09:11:05.341Z,31.02
2023-06-30T09:13:33.243Z,31.01
2023-06-30T09:16:01.283Z,30.82
2023-06-30T09:18:29.015Z,31.01
2023-06-30T09:20:56.232Z,30.86
2023-06-30T09:23:23.481Z,30.66
2023-06-30T09:25:53.835Z,30.74
2023-06-30T09:28:20.861Z,30.95
2023-06-30T09:30:48.893Z,31.00
2023-06-30T09:33:18.042Z,31.21
2023-06-30T09:35:48.073Z,30.45
2023-06-30T09:38:20.543Z,30.50
2023-06-30T09:40:50.425Z,30.80
2023-06-30T09:43:23.378Z,30.97
2023-06-30T09:45:59.080Z,30.99
2023-06-30T09:48:36.412Z,30.70
2023-06-30T09:51:03.601Z,30.59
2023-06-30T09:53:39.105Z,30.90
2023-06-30T09:56:07.642Z,30.66
2023-06-30T09:58:37.090Z,30.66
2023-06-30T10:01:04.252Z,30.82
2023-06-30T10:03:31.474Z,30.65
2023-06-30T10:05:58.922Z,30.61
2023-06-30T10:08:26.566Z,30.81
2023-06-30T10:10:55.612Z,30.71
2023-06-30T10:13:22.822Z,30.16
2023-06-30T10:15:50.988Z,30.47
2023-06-30T10:18:19.556Z,30.42
2023-06-30T10:20:49.414Z,30.47
2023-06-30T10:23:22.252Z,30.61
2023-06-30T10:25:51.470Z,30.63
2023-06-30T10:28:20.327Z,30.70
2023-06-30T10:30:52.091Z,30.82
2023-06-30T10:33:19.514Z,30.43
2023-06-30T10:35:48.416Z,30.66
2023-06-30T10:38:15.616Z,30.52
2023-06-30T10:40:42.674Z,30.26
2023-06-30T10:43:11.265Z,30.54
2023-06-30T10:46:11.358Z,30.82
2023-06-30T10:48:41.428Z,30.99
2023-06-30T10:51:11.841Z,30.72
2023-06-30T10:53:43.027Z,30.68
2023-06-30T10:56:10.561Z,30.35
2023-06-30T10:58:46.440Z,30.17
2023-06-30T11:01:15.455Z,30.30
2023-06-30T11:03:57.810Z,30.33
2023-06-30T11:06:26.845Z,30.12
2023-06-30T11:09:01.846Z,30.01
2023-06-30T11:11:28.942Z,29.15
2023-06-30T11:14:06.811Z,30.09
2023-06-30T11:17:04.418Z,30.50
2023-06-30T11:19:32.068Z,30.22
2023-06-30T11:22:33.005Z,30.24
2023-06-30T11:25:06.401Z,30.38
2023-06-30T11:27:34.461Z,30.19
2023-06-30T11:30:02.339Z,30.45
2023-06-30T11:32:31.861Z,30.62
2023-06-30T11:35:02.480Z,30.35
2023-06-30T11:37:31.680Z,30.23
2023-06-30T11:39:59.933Z,29.90
2023-06-30T11:42:27.328Z,30.15
2023-06-30T11:44:54.448Z,30.41
2023-06-30T11:47:22.376Z,30.43
2023-06-30T11:49:50.479Z,29.61
2023-06-30T11:52:19.881Z,30.19
2023-06-30T11:54:47.298Z,30.07
2023-06-30T11:57:14.540Z,30.07
2023-06-30T11:59:41.580Z,29.90
2023-06-30T12:02:12.833Z,30.41
2023-06-30T12:04:47.757Z,30.26
2023-06-30T12:07:16.503Z,30.41
2023-06-30T12:09:44.009Z,29.51
2023-06-30T12:12:11.497Z,30.08
2023-06-30T12:14:42.652Z,30.50
2023-06-30T12:17:10.795Z,30.41
2023-06-30T12:19:38.745Z,30.35
2023-06-30T12:22:08.136Z,29.82
2023-06-30T12:24:36.114Z,29.95
2023-06-30T12:27:08.590Z,29.63
2023-06-30T12:29:36.870Z,30.45
2023-06-30T12:32:17.220Z,29.73
2023-06-30T12:34:46.705Z,29.68
2023-06-30T12:37:20.076Z,30.11
2023-06-30T12:39:47.983Z,29.82
2023-06-30T12:42:15.036Z,29.95
2023-06-30T12:44:42.014Z,30.14
2023-06-30T12:47:09.091Z,30.39
2023-06-30T12:49:39.289Z,30.24
2023-06-30T12:52:06.549Z,30.56
2023-06-30T12:54:34.166Z,29.85
2023-06-30T12:57:01.256Z,29.90
2023-06-30T12:59:28.318Z,30.07
2023-06-30T13:01:55.441Z,30.29
2023-06-30T13:04:22.466Z,29.91
2023-06-30T13:06:49.414Z,29.61
2023-06-30T13:09:16.439Z,29.82
2023-06-30T13:11:43.426Z,29.69
2023-06-30T13:14:10.481Z,29.90
2023-06-30T13:16:37.828Z,29.84
2023-06-30T13:19:04.980Z,30.00
2023-06-30T13:21:31.988Z,30.16
2023-06-30T13:23:59.038Z,30.13
2023-06-30T13:26:26.400Z,30.11
2023-06-30T13:28:53.406Z,30.12
2023-06-30T13:31:20.412Z,30.12
2023-06-30T13:33:47.416Z,30.09
2023-06-30T13:36:15.515Z,30.04
2023-06-30T13:38:47.585Z,29.80
2023-06-30T13:41:14.965Z,29.57
2023-06-30T13:43:42.052Z,30.26
2023-06-30T13:46:09.157Z,30.61
2023-06-30T13:48:39.604Z,31.32
2023-06-30T13:51:11.603Z,30.91
2023-06-30T13:53:48.081Z,31.13
2023-06-30T13:56:17.434Z,31.03
2023-06-30T13:58:44.471Z,31.56
2023-06-30T14:01:12.822Z,30.69
2023-06-30T14:03:41.411Z,31.02
2023-06-30T14:06:08.640Z,31.75
2023-06-30T14:08:36.242Z,31.08
2023-06-30T14:11:03.488Z,31.22
2023-06-30T14:13:38.580Z,31.78
2023-06-30T14:16:08.206Z,32.42
2023-06-30T14:18:35.254Z,32.39
2023-06-30T14:21:05.067Z,32.36
2023-06-30T14:23:32.247Z,31.96
2023-06-30T14:25:59.205Z,31.51
2023-06-30T14:28:26.512Z,32.10
2023-06-30T14:30:54.680Z,32.29
2023-06-30T14:33:21.771Z,32.28
2023-06-30T14:35:49.431Z,32.11
2023-06-30T14:38:16.432Z,32.08
2023-06-30T14:40:43.597Z,31.70
2023-06-30T14:43:10.675Z,31.49
2023-06-30T14:45:37.747Z,31.65
2023-06-30T14:48:05.444Z,30.94
2023-06-30T14:50:32.653Z,30.60
2023-06-30T14:52:59.875Z,31.02
2023-06-30T14:55:26.908Z,30.91
2023-06-30T14:57:54.027Z,31.82
2023-06-30T15:00:21.188Z,31.61
2023-06-30T15:02:48.304Z,31.44
2023-06-30T15:05:15.552Z,31.59
2023-06-30T15:07:44.233Z,31.34
2023-06-30T15:10:12.416Z,31.50
2023-06-30T15:12:39.462Z,31.82
2023-06-30T15:15:07.396Z,32.02
2023-06-30T15:17:34.460Z,32.10
2023-06-30T15:20:01.783Z,31.84
2023-06-30T15:22:30.834Z,31.69
2023-06-30T15:24:58.864Z,32.08
2023-06-30T15:27:26.975Z,31.57
2023-06-30T15:29:54.640Z,31.76
2023-06-30T15:32:21.715Z,31.42
2023-06-30T15:34:48.990Z,31.66
2023-06-30T15:37:16.160Z,31.04
2023-06-30T15:39:43.246Z,31.25
2023-06-30T15:42:10.326Z,31.04
2023-06-30T15:44:40.718Z,30.83
2023-06-30T15:47:08.064Z,30.61
2023-06-30T15:49:35.180Z,31.03
2023-06-30T15:52:02.229Z,29.84
2023-06-30T15:54:29.635Z,30.01
2023-06-30T15:56:56.661Z,30.03
2023-06-30T15:59:24.382Z,30.33
2023-06-30T16:01:51.400Z,29.91
2023-06-30T16:04:18.562Z,29.75
2023-06-30T16:06:45.668Z,30.15
2023-06-30T16:09:14.950Z,29.79
2023-06-30T16:11:42.362Z,29.83
2023-06-30T16:14:09.526Z,29.66
2023-06-30T16:16:36.722Z,29.45
2023-06-30T16:19:03.848Z,29.73
2023-06-30T16:21:33.744Z,30.27
2023-06-30T16:24:01.194Z,29.63
2023-06-30T16:26:28.170Z,29.61
2023-06-30T16:28:58.918Z,29.38
2023-06-30T16:31:26.228Z,29.52
2023-06-30T16:33:53.432Z,29.58
2023-06-30T16:36:20.495Z,29.86
2023-06-30T16:38:47.675Z,29.97
2023-06-30T16:41:14.909Z,30.48
2023-06-30T16:43:42.358Z,30.48
2023-06-30T16:46:09.456Z,30.28
2023-06-30T16:48:36.507Z,30.78
2023-06-30T16:51:03.589Z,30.06
2023-06-30T16:53:30.665Z,29.20
2023-06-30T16:55:57.804Z,29.62
2023-06-30T16:58:26.442Z,29.62
2023-06-30T17:00:54.271Z,29.72
2023-06-30T17:03:21.532Z,29.51
2023-06-30T17:05:48.925Z,29.66
2023-06-30T17:08:16.736Z,29.38
2023-06-30T17:10:46.669Z,29.49
2023-06-30T17:13:13.957Z,29.28
2023-06-30T17:15:40.989Z,29.14
2023-06-30T17:18:08.515Z,29.46
2023-06-30T17:20:35.851Z,29.67
2023-06-30T17:23:02.978Z,29.75
2023-06-30T17:25:30.145Z,29.84
2023-06-30T17:27:57.387Z,29.63
2023-06-30T17:30:24.576Z,30.06
2023-06-30T17:32:51.600Z,30.15
2023-06-30T17:35:18.644Z,30.20
2023-06-30T17:37:45.632Z,30.22
2023-06-30T17:40:13.431Z,30.14
2023-06-30T17:42:40.410Z,30.07
2023-06-30T17:45:07.815Z,29.82
2023-06-30T17:47:34.863Z,29.93
2023-06-30T17:50:02.018Z,29.84
2023-06-30T17:52:29.139Z,29.78
2023-06-30T17:54:56.192Z,29.54
2023-06-30T17:57:23.243Z,29.84
2023-06-30T17:59:50.279Z,29.19
2023-06-30T18:02:17.312Z,29.56
2023-06-30T18:04:44.662Z,29.70
2023-06-30T18:07:12.836Z,30.07
2023-06-30T18:09:43.754Z,30.50
2023-06-30T18:12:12.003Z,30.07
2023-06-30T18:14:41.331Z,29.75
2023-06-30T18:17:09.423Z,29.40
2023-06-30T18:19:37.747Z,29.67
2023-06-30T18:22:05.182Z,28.70
2023-06-30T18:24:32.203Z,29.41
2023-06-30T18:26:59.464Z,29.99
2023-06-30T18:29:27.100Z,29.80
2023-06-30T18:31:57.573Z,29.72
2023-06-30T18:34:26.644Z,29.78
2023-06-30T18:36:53.726Z,29.56
2023-06-30T18:39:21.238Z,29.29
2023-06-30T18:41:48.589Z,29.01
2023-06-30T18:44:15.932Z,29.04
2023-06-30T18:46:43.110Z,29.24
2023-06-30T18:49:12.471Z,29.37
2023-06-30T18:51:42.980Z,29.40
2023-06-30T18:54:11.306Z,28.81
2023-06-30T18:56:38.824Z,28.57
2023-06-30T18:59:06.142Z,28.50
2023-06-30T19:01:33.846Z,27.86
2023-06-30T19:04:01.300Z,28.07
2023-06-30T19:06:28.583Z,28.46
2023-06-30T19:08:55.776Z,28.74
2023-06-30T19:11:24.153Z,29.14
2023-06-30T19:13:53.858Z,27.93
2023-06-30T19:16:21.636Z,27.75
2023-06-30T19:18:49.147Z,28.05
2023-06-30T19:21:16.649Z,28.11
2023-06-30T19:23:43.977Z,28.60
2023-06-30T19:26:12.164Z,28.28
2023-06-30T19:28:42.573Z,29.04
2023-06-30T19:31:10.023Z,28.80
2023-06-30T19:33:38.015Z,28.33
2023-06-30T19:36:05.951Z,28.68
2023-06-30T19:38:33.213Z,28.14
2023-06-30T19:41:00.316Z,28.31
2023-06-30T19:43:30.287Z,28.28
2023-06-30T19:45:57.323Z,27.86
2023-06-30T19:48:24.356Z,27.93
2023-06-30T19:50:51.705Z,28.07
2023-06-30T19:53:18.824Z,27.46
2023-06-30T19:55:46.575Z,28.25
2023-06-30T19:58:14.100Z,28.47
2023-06-30T20:00:41.080Z,28.55
2023-06-30T20:03:08.581Z,28.76
2023-06-30T20:05:36.838Z,28.51
2023-06-30T20:08:04.377Z,28.69
2023-06-30T20:10:31.907Z,28.85
2023-06-30T20:12:59.292Z,28.63
2023-06-30T20:15:27.017Z,28.97
2023-06-30T20:17:54.598Z,29.08
2023-06-30T20:20:21.757Z,29.00
2023-06-30T20:22:48.878Z,29.26
2023-06-30T20:25:16.154Z,29.36
2023-06-30T20:27:45.864Z,28.94
2023-06-30T20:30:13.635Z,28.87
2023-06-30T20:32:40.755Z,30.38
2023-06-30T20:35:10.003Z,29.93
2023-06-30T20:37:37.189Z,29.26
2023-06-30T20:40:05.023Z,28.81
2023-06-30T20:42:32.024Z,28.80
2023-06-30T20:44:59.042Z,28.61
2023-06-30T20:47:26.511Z,28.73
2023-06-30T20:49:53.888Z,28.60
2023-06-30T20:52:21.031Z,28.72
2023-06-30T20:54:48.017Z,28.34
2023-06-30T20:57:15.024Z,28.70
2023-06-30T20:59:42.442Z,28.75
2023-06-30T21:02:09.569Z,28.75
2023-06-30T21:04:36.932Z,28.90
2023-06-30T21:07:04.442Z,29.00
2023-06-30T21:09:31.464Z,28.67
2023-06-30T21:11:58.462Z,28.69
2023-06-30T21:14:25.511Z,29.29
2023-06-30T21:16:52.555Z,29.41
2023-06-30T21:19:19.615Z,29.17
2023-06-30T21:21:46.734Z,29.50
2023-06-30T21:24:13.707Z,29.29
2023-06-30T21:26:42.398Z,29.28
2023-06-30T21:29:12.270Z,29.36
2023-06-30T21:31:39.511Z,29.39
2023-06-30T21:34:06.642Z,29.42
2023-06-30T21:36:35.132Z,29.33
2023-06-30T21:39:04.563Z,28.93
2023-06-30T21:41:31.687Z,28.85
2023-06-30T21:43:58.676Z,28.77
2023-06-30T21:46:26.035Z,28.69
2023-06-30T21:48:53.967Z,28.83
2023-06-30T21:51:21.279Z,28.88
2023-06-30T21:53:48.268Z,29.15
2023-06-30T21:56:15.278Z,28.72
2023-06-30T21:58:42.341Z,28.48
2023-06-30T22:01:09.534Z,28.36
2023-06-30T22:03:36.756Z,28.35
2023-06-30T22:06:03.886Z,28.46
2023-06-30T22:08:30.833Z,28.48
2023-06-30T22:11:01.257Z,29.92
2023-06-30T22:13:28.684Z,30.29
2023-06-30T22:15:55.701Z,30.30
2023-06-30T22:18:22.762Z,30.20
2023-06-30T22:20:49.972Z,30.21
2023-06-30T22:23:17.315Z,30.31
2023-06-30T22:25:44.319Z,30.28
2023-06-30T22:28:11.530Z,30.17
2023-06-30T22:30:38.599Z,30.21
2023-06-30T22:33:05.646Z,30.26
2023-06-30T22:35:32.719Z,30.12
2023-06-30T22:37:59.746Z,30.11
2023-06-30T22:40:26.769Z,29.92
2023-06-30T22:42:54.967Z,29.92
2023-06-30T22:45:22.065Z,29.87
2023-06-30T22:47:49.136Z,29.89
2023-06-30T22:50:16.263Z,29.79
2023-06-30T22:52:43.266Z,29.68
2023-06-30T22:55:10.698Z,29.78
2023-06-30T22:57:37.902Z,29.78
2023-06-30T23:00:07.445Z,29.98
2023-06-30T23:02:34.489Z,29.73
2023-06-30T23:05:01.751Z,29.62
2023-06-30T23:07:29.172Z,29.73
2023-06-30T23:09:56.346Z,29.49
2023-06-30T23:12:23.407Z,29.62
2023-06-30T23:14:50.412Z,28.64
2023-06-30T23:17:17.628Z,29.07
2023-06-30T23:19:51.413Z,29.60
2023-06-30T23:22:19.230Z,29.74
2023-06-30T23:24:51.410Z,29.69
2023-06-30T23:27:19.881Z,29.74
2023-06-30T23:29:50.654Z,29.67
2023-06-30T23:32:21.769Z,29.89
2023-06-30T23:34:49.375Z,29.70
2023-06-30T23:37:18.259Z,29.61
2023-06-30T23:39:48.460Z,29.61
2023-06-30T23:42:15.658Z,29.14
2023-06-30T23:44:42.798Z,29.07
2023-06-30T23:47:17.714Z,29.10
2023-06-30T23:49:47.333Z,28.67
2023-06-30T23:52:14.640Z,28.77
2023-06-30T23:54:44.760Z,28.75
2023-06-30T23:57:12.057Z,28.72
2023-06-30T23:59:39.179Z,28.65
